Union Trader — SVAX6 — position and weather

sailwx.info

Track history (hours):
 
Tides and Currents Weather Stations Pressure Air Temp Water Temp Dewpoint Dewpoint Depression Visibility Wind Speed Wind Dir Waves Ship Positions

Union Trader

Last reported at 2014-Dec-18 04:25 UTC. Time now 2014-Dec-21 04:04 UTC.
Position N 01°16' E 104°09'.

Length 190 m; draft 13 m.

Type: Cargo ship. MMSI: 240982000.

Date/timePositionNaut miles runAvg speedWind from/ knotsBaromVisibWave heightAir tempDewpointWater temp
2014-Dec-18 04:25N 01°16' E 104°09'8 9.5
2014-Dec-18 03:33N 01°17' E 104°01'0 0.1
2014-Dec-18 01:26N 01°17' E 104°01'0 0.0
2014-Dec-18 00:17N 01°17' E 104°01'0 0.1
2014-Dec-17 23:17N 01°17' E 104°01'0 0.0
2014-Dec-17 22:32N 01°17' E 104°01'0 0.0
2014-Dec-17 21:17N 01°17' E 104°01'0 0.0
2014-Dec-17 20:32N 01°17' E 104°01'0 0.0
2014-Dec-17 19:29N 01°17' E 104°01'0 0.0
2014-Dec-17 18:29N 01°17' E 104°01'0 0.0
2014-Dec-17 17:23N 01°17' E 104°01'0 0.0
2014-Dec-17 16:11N 01°17' E 104°01'0 0.2
2014-Dec-17 15:23N 01°17' E 104°01'3 4.1
2014-Dec-17 14:33N 01°16' E 103°58'4 3.7
2014-Dec-17 13:33N 01°13' E 103°55'9 8.6
2014-Dec-17 12:29N 01°09' E 103°47'7310.1
2014-Dec-17 05:11N 01°40' E 102°41'910.7
2014-Dec-17 04:21N 01°45' E 102°33'910.8
2014-Dec-17 03:33N 01°48' E 102°25'  
Track history (hours):
 
Tides and Currents Weather Stations Pressure Air Temp Water Temp Dewpoint Dewpoint Depression Visibility Wind Speed Wind Dir Waves Ship Positions

Union Trader

Last reported at 2014-Dec-18 04:25 UTC. Time now 2014-Dec-21 04:04 UTC.
Position N 01°16' E 104°09'.

Length 190 m; draft 13 m.

Type: Cargo ship. MMSI: 240982000.

Date/timePositionNaut miles runAvg speedWind from/ knotsBaromVisibWave heightAir tempDewpointWater temp
2014-Dec-18 04:25N 01°16' E 104°09'8 9.5
2014-Dec-18 03:33N 01°17' E 104°01'0 0.1
2014-Dec-18 01:26N 01°17' E 104°01'0 0.0
2014-Dec-18 00:17N 01°17' E 104°01'0 0.1
2014-Dec-17 23:17N 01°17' E 104°01'0 0.0
2014-Dec-17 22:32N 01°17' E 104°01'0 0.0
2014-Dec-17 21:17N 01°17' E 104°01'0 0.0
2014-Dec-17 20:32N 01°17' E 104°01'0 0.0
2014-Dec-17 19:29N 01°17' E 104°01'0 0.0
2014-Dec-17 18:29N 01°17' E 104°01'0 0.0
2014-Dec-17 17:23N 01°17' E 104°01'0 0.0
2014-Dec-17 16:11N 01°17' E 104°01'0 0.2
2014-Dec-17 15:23N 01°17' E 104°01'3 4.1
2014-Dec-17 14:33N 01°16' E 103°58'4 3.7
2014-Dec-17 13:33N 01°13' E 103°55'9 8.6
2014-Dec-17 12:29N 01°09' E 103°47'7310.1
2014-Dec-17 05:11N 01°40' E 102°41'910.7
2014-Dec-17 04:21N 01°45' E 102°33'910.8
2014-Dec-17 03:33N 01°48' E 102°25'  

Dump ship's entire track history